createdAt,value
2023-01-28T00:01:18.949Z,2.30
2023-01-28T00:03:44.926Z,2.13
2023-01-28T00:06:18.260Z,2.40
2023-01-28T00:08:44.369Z,1.83
2023-01-28T00:11:11.806Z,2.13
2023-01-28T00:13:37.794Z,2.47
2023-01-28T00:16:05.086Z,2.60
2023-01-28T00:18:31.803Z,2.30
2023-01-28T00:20:58.500Z,2.33
2023-01-28T00:23:24.561Z,2.97
2023-01-28T00:25:50.275Z,3.90
2023-01-28T00:28:16.000Z,2.80
2023-01-28T00:30:41.710Z,2.33
2023-01-28T00:33:07.426Z,2.47
2023-01-28T00:35:33.154Z,1.70
2023-01-28T00:37:59.746Z,2.13
2023-01-28T00:40:25.487Z,2.33
2023-01-28T00:42:51.489Z,2.17
2023-01-28T00:45:17.691Z,2.33
2023-01-28T00:47:44.514Z,1.60
2023-01-28T00:50:10.559Z,2.30
2023-01-28T00:52:36.270Z,1.60
2023-01-28T00:55:02.127Z,2.20
2023-01-28T00:57:27.857Z,2.10
2023-01-28T00:59:53.557Z,2.00
2023-01-28T01:02:19.351Z,2.17
2023-01-28T01:04:54.209Z,2.40
2023-01-28T01:07:31.455Z,1.20
2023-01-28T01:10:00.392Z,1.33
2023-01-28T01:12:26.238Z,2.33
2023-01-28T01:14:51.966Z,2.00
2023-01-28T01:17:18.142Z,1.97
2023-01-28T01:19:43.877Z,1.73
2023-01-28T01:22:09.602Z,2.07
2023-01-28T01:24:35.320Z,2.03
2023-01-28T01:27:01.023Z,1.83
2023-01-28T01:29:26.910Z,2.33
2023-01-28T01:31:52.737Z,2.23
2023-01-28T01:34:18.462Z,2.00
2023-01-28T01:36:44.246Z,1.90
2023-01-28T01:39:11.913Z,2.40
2023-01-28T01:41:37.805Z,2.10
2023-01-28T01:44:04.395Z,2.10
2023-01-28T01:46:33.173Z,2.07
2023-01-28T01:49:02.998Z,2.33
2023-01-28T01:51:31.762Z,2.58
2023-01-28T01:53:58.363Z,1.93
2023-01-28T01:56:27.539Z,2.20
2023-01-28T01:58:54.541Z,2.50
2023-01-28T02:01:22.027Z,1.80
2023-01-28T02:04:11.042Z,1.80
2023-01-28T02:06:37.243Z,2.67
2023-01-28T02:09:06.368Z,2.50
2023-01-28T02:11:32.944Z,2.37
2023-01-28T02:14:00.780Z,2.23
2023-01-28T02:16:28.105Z,2.67
2023-01-28T02:18:53.924Z,2.37
2023-01-28T02:21:38.433Z,3.47
2023-01-28T02:24:07.021Z,2.50
2023-01-28T02:26:42.403Z,2.33
2023-01-28T02:29:20.336Z,2.40
2023-01-28T02:31:46.110Z,2.40
2023-01-28T02:34:18.014Z,2.87
2023-01-28T02:36:49.688Z,2.97
2023-01-28T02:39:17.857Z,2.60
2023-01-28T02:41:48.621Z,2.30
2023-01-28T02:44:14.385Z,2.20
2023-01-28T02:46:58.694Z,2.27
2023-01-28T02:49:34.342Z,3.83
2023-01-28T02:52:02.810Z,2.37
2023-01-28T02:54:47.176Z,2.30
2023-01-28T02:57:12.870Z,2.40
2023-01-28T02:59:38.631Z,2.40
2023-01-28T03:02:21.112Z,2.67
2023-01-28T03:04:56.622Z,2.70
2023-01-28T03:07:24.512Z,2.93
2023-01-28T03:09:51.211Z,2.37
2023-01-28T03:12:40.075Z,2.87
2023-01-28T03:15:33.104Z,2.70
2023-01-28T03:18:26.628Z,1.63
2023-01-28T03:21:19.900Z,1.70
2023-01-28T03:24:23.418Z,2.57
2023-01-28T03:27:21.966Z,2.60
2023-01-28T03:30:08.086Z,2.30
2023-01-28T03:32:52.850Z,2.50
2023-01-28T03:35:39.720Z,3.17
2023-01-28T03:38:17.471Z,2.20
2023-01-28T03:40:54.580Z,2.87
2023-01-28T03:43:20.489Z,2.37
2023-01-28T03:45:50.651Z,2.10
2023-01-28T03:48:19.520Z,2.00
2023-01-28T03:50:45.431Z,3.07
2023-01-28T03:53:16.501Z,2.37
2023-01-28T03:55:43.072Z,2.20
2023-01-28T03:58:09.397Z,2.20
2023-01-28T04:00:41.349Z,2.40
2023-01-28T04:03:16.698Z,2.23
2023-01-28T04:05:43.032Z,2.27
2023-01-28T04:08:08.751Z,2.30
2023-01-28T04:10:34.557Z,2.97
2023-01-28T04:13:00.290Z,2.33
2023-01-28T04:15:26.025Z,2.40
2023-01-28T04:17:51.765Z,2.03
2023-01-28T04:20:17.563Z,2.40
2023-01-28T04:22:43.353Z,1.90
2023-01-28T04:25:09.308Z,2.00
2023-01-28T04:27:35.071Z,2.53
2023-01-28T04:30:00.789Z,2.60
2023-01-28T04:32:26.532Z,2.20
2023-01-28T04:34:52.280Z,1.80
2023-01-28T04:37:17.972Z,2.00
2023-01-28T04:39:43.689Z,2.17
2023-01-28T04:42:09.449Z,2.23
2023-01-28T04:44:35.157Z,2.03
2023-01-28T04:47:00.851Z,1.67
2023-01-28T04:49:26.580Z,2.33
2023-01-28T04:51:52.313Z,1.60
2023-01-28T04:54:18.035Z,1.60
2023-01-28T04:56:43.770Z,1.50
2023-01-28T04:59:09.521Z,1.33
2023-01-28T05:01:35.298Z,1.90
2023-01-28T05:04:04.866Z,1.63
2023-01-28T05:06:31.032Z,1.63
2023-01-28T05:08:57.336Z,1.50
2023-01-28T05:11:23.328Z,1.40
2023-01-28T05:13:49.491Z,2.07
2023-01-28T05:16:15.217Z,1.60
2023-01-28T05:18:43.738Z,1.80
2023-01-28T05:21:10.394Z,1.57
2023-01-28T05:23:36.171Z,1.70
2023-01-28T05:26:01.896Z,1.77
2023-01-28T05:28:28.675Z,2.10
2023-01-28T05:30:54.404Z,2.10
2023-01-28T05:33:20.210Z,2.00
2023-01-28T05:35:51.115Z,2.10
2023-01-28T05:38:16.862Z,1.90
2023-01-28T05:40:42.683Z,1.77
2023-01-28T05:43:08.411Z,3.67
2023-01-28T05:45:34.235Z,2.77
2023-01-28T05:47:59.975Z,2.30
2023-01-28T05:50:25.780Z,2.63
2023-01-28T05:52:51.521Z,2.50
2023-01-28T05:55:19.808Z,3.00
2023-01-28T05:57:47.258Z,3.10
2023-01-28T06:00:14.394Z,3.27
2023-01-28T06:02:40.474Z,2.40
2023-01-28T06:05:06.458Z,2.37
2023-01-28T06:07:32.189Z,2.57
2023-01-28T06:09:57.896Z,2.70
2023-01-28T06:12:23.658Z,2.70
2023-01-28T06:14:49.437Z,3.20
2023-01-28T06:17:15.230Z,2.87
2023-01-28T06:19:40.986Z,3.08
2023-01-28T06:22:06.756Z,2.53
2023-01-28T06:24:32.513Z,3.70
2023-01-28T06:26:58.304Z,3.90
2023-01-28T06:29:24.113Z,2.87
2023-01-28T06:31:50.515Z,3.13
2023-01-28T06:34:16.429Z,3.93
2023-01-28T06:36:42.164Z,3.63
2023-01-28T06:39:07.892Z,4.00
2023-01-28T06:41:33.665Z,4.07
2023-01-28T06:43:59.395Z,3.85
2023-01-28T06:46:25.124Z,3.90
2023-01-28T06:48:50.909Z,4.03
2023-01-28T06:51:16.671Z,3.63
2023-01-28T06:53:43.251Z,3.63
2023-01-28T06:56:10.350Z,3.17
2023-01-28T06:58:36.089Z,3.42
2023-01-28T07:01:03.055Z,4.18
2023-01-28T07:03:29.199Z,3.28
2023-01-28T07:05:55.081Z,4.07
2023-01-28T07:08:20.989Z,4.30
2023-01-28T07:10:46.764Z,3.83
2023-01-28T07:13:12.574Z,3.40
2023-01-28T07:15:38.366Z,3.80
2023-01-28T07:18:04.582Z,3.88
2023-01-28T07:20:30.669Z,3.35
2023-01-28T07:22:56.439Z,2.93
2023-01-28T07:25:22.358Z,3.08
2023-01-28T07:27:49.304Z,3.87
2023-01-28T07:30:16.065Z,2.97
2023-01-28T07:32:42.182Z,3.70
2023-01-28T07:35:08.452Z,3.07
2023-01-28T07:37:34.355Z,3.27
2023-01-28T07:40:00.259Z,2.70
2023-01-28T07:42:26.353Z,3.20
2023-01-28T07:44:52.224Z,3.43
2023-01-28T07:47:18.968Z,3.67
2023-01-28T07:49:44.884Z,2.78
2023-01-28T07:52:10.944Z,3.20
2023-01-28T07:54:36.705Z,3.70
2023-01-28T07:57:06.552Z,3.03
2023-01-28T07:59:32.387Z,2.10
2023-01-28T08:01:58.326Z,1.98
2023-01-28T08:04:24.353Z,1.30
2023-01-28T08:06:51.699Z,1.83
2023-01-28T08:09:17.416Z,1.50
2023-01-28T08:11:43.238Z,1.58
2023-01-28T08:14:10.098Z,1.65
2023-01-28T08:16:36.030Z,2.33
2023-01-28T08:19:02.260Z,1.90
2023-01-28T08:21:28.073Z,1.52
2023-01-28T08:23:54.736Z,1.70
2023-01-28T08:26:20.680Z,1.27
2023-01-28T08:28:46.922Z,1.55
2023-01-28T08:31:13.208Z,2.42
2023-01-28T08:33:39.113Z,1.73
2023-01-28T08:36:11.206Z,1.60
2023-01-28T08:38:37.019Z,1.30
2023-01-28T08:41:02.897Z,1.63
2023-01-28T08:43:28.949Z,1.70
2023-01-28T08:45:54.750Z,1.42
2023-01-28T08:48:21.295Z,1.65
2023-01-28T08:50:47.308Z,1.48
2023-01-28T08:53:14.479Z,1.40
2023-01-28T08:55:40.207Z,1.70
2023-01-28T08:58:07.058Z,1.80
2023-01-28T09:00:33.831Z,1.40
2023-01-28T09:02:59.647Z,1.15
2023-01-28T09:05:34.929Z,1.42
2023-01-28T09:08:02.084Z,1.05
2023-01-28T09:10:27.850Z,1.05
2023-01-28T09:12:53.746Z,0.70
2023-01-28T09:15:19.549Z,2.35
2023-01-28T09:17:45.600Z,1.15
2023-01-28T09:20:12.444Z,1.00
2023-01-28T09:22:38.457Z,0.90
2023-01-28T09:25:04.798Z,1.42
2023-01-28T09:27:31.284Z,1.40
2023-01-28T09:29:58.633Z,1.45
2023-01-28T09:32:24.939Z,1.20
2023-01-28T09:34:50.865Z,1.50
2023-01-28T09:37:17.736Z,1.65
2023-01-28T09:39:43.782Z,1.38
2023-01-28T09:42:18.818Z,1.42
2023-01-28T09:45:08.152Z,0.70
2023-01-28T09:47:33.922Z,0.98
2023-01-28T09:50:01.900Z,1.02
2023-01-28T09:52:29.987Z,1.00
2023-01-28T09:54:59.762Z,1.13
2023-01-28T09:57:30.805Z,1.00
2023-01-28T09:59:56.980Z,0.75
2023-01-28T10:02:41.641Z,0.90
2023-01-28T10:05:28.534Z,1.13
2023-01-28T10:07:57.550Z,0.88
2023-01-28T10:10:24.746Z,1.33
2023-01-28T10:12:50.641Z,1.13
2023-01-28T10:15:21.189Z,1.27
2023-01-28T10:17:49.167Z,0.95
2023-01-28T10:20:25.408Z,1.55
2023-01-28T10:23:04.438Z,1.08
2023-01-28T10:25:31.585Z,0.98
2023-01-28T10:27:57.923Z,1.10
2023-01-28T10:30:25.072Z,1.00
2023-01-28T10:32:52.705Z,1.15
2023-01-28T10:35:19.005Z,1.42
2023-01-28T10:37:46.409Z,1.42
2023-01-28T10:40:14.827Z,0.90
2023-01-28T10:42:40.854Z,1.55
2023-01-28T10:45:08.408Z,1.13
2023-01-28T10:47:45.900Z,0.90
2023-01-28T10:50:23.987Z,0.95
2023-01-28T10:52:53.759Z,0.98
2023-01-28T10:55:19.588Z,1.63
2023-01-28T10:57:45.454Z,0.80
2023-01-28T11:00:12.901Z,1.35
2023-01-28T11:02:39.211Z,1.55
2023-01-28T11:05:28.158Z,1.10
2023-01-28T11:08:14.060Z,0.90
2023-01-28T11:10:40.622Z,1.20
2023-01-28T11:13:14.463Z,0.90
2023-01-28T11:15:45.808Z,0.90
2023-01-28T11:18:16.415Z,1.63
2023-01-28T11:20:43.296Z,0.95
2023-01-28T11:23:19.013Z,1.33
2023-01-28T11:25:44.874Z,0.98
2023-01-28T11:28:17.260Z,0.90
2023-01-28T11:30:43.085Z,1.13
2023-01-28T11:33:13.283Z,0.70
2023-01-28T11:35:39.430Z,1.05
2023-01-28T11:38:16.392Z,1.10
2023-01-28T11:40:49.271Z,1.10
2023-01-28T11:43:15.247Z,1.00
2023-01-28T11:45:56.484Z,1.00
2023-01-28T11:48:27.075Z,0.68
2023-01-28T11:50:52.957Z,1.15
2023-01-28T11:53:35.334Z,1.13
2023-01-28T11:56:07.594Z,0.80
2023-01-28T11:58:39.521Z,0.98
2023-01-28T12:01:31.137Z,0.88
2023-01-28T12:04:11.674Z,0.77
2023-01-28T12:07:05.598Z,0.85
2023-01-28T12:09:45.101Z,0.98
2023-01-28T12:12:11.092Z,0.90
2023-01-28T12:14:55.736Z,1.20
2023-01-28T12:17:28.928Z,0.93
2023-01-28T12:19:54.889Z,1.60
2023-01-28T12:22:33.245Z,0.80
2023-01-28T12:25:20.098Z,1.17
2023-01-28T12:28:12.362Z,1.35
2023-01-28T12:30:54.103Z,1.30
2023-01-28T12:33:23.319Z,1.30
2023-01-28T12:36:17.612Z,1.05
2023-01-28T12:38:43.419Z,1.67
2023-01-28T12:41:20.939Z,1.08
2023-01-28T12:43:46.862Z,1.00
2023-01-28T12:46:36.665Z,0.70
2023-01-28T12:49:18.626Z,1.40
2023-01-28T12:51:53.801Z,0.55
2023-01-28T12:54:38.907Z,0.80
2023-01-28T12:57:07.575Z,0.80
2023-01-28T12:59:38.489Z,0.90
2023-01-28T13:02:13.716Z,1.13
2023-01-28T13:04:59.764Z,0.80
2023-01-28T13:07:41.819Z,0.60
2023-01-28T13:10:17.168Z,0.90
2023-01-28T13:12:43.748Z,0.75
2023-01-28T13:15:15.095Z,1.58
2023-01-28T13:17:52.867Z,1.88
2023-01-28T13:20:30.103Z,0.85
2023-01-28T13:23:04.191Z,0.63
2023-01-28T13:25:32.652Z,0.85
2023-01-28T13:28:00.376Z,1.50
2023-01-28T13:30:31.193Z,0.63
2023-01-28T13:32:58.764Z,0.50
2023-01-28T13:35:46.480Z,0.80
2023-01-28T13:38:16.867Z,0.60
2023-01-28T13:40:43.880Z,0.70
2023-01-28T13:43:27.383Z,0.82
2023-01-28T13:46:00.721Z,1.20
2023-01-28T13:48:26.719Z,1.17
2023-01-28T13:50:54.069Z,0.98
2023-01-28T13:53:29.306Z,1.05
2023-01-28T13:55:56.967Z,1.70
2023-01-28T13:58:35.044Z,0.80
2023-01-28T14:01:19.956Z,1.70
2023-01-28T14:03:55.131Z,1.30
2023-01-28T14:06:45.977Z,1.10
2023-01-28T14:12:00.903Z,0.73
2023-01-28T14:14:29.567Z,0.70
2023-01-28T14:17:13.833Z,0.95
2023-01-28T14:19:40.136Z,0.77
2023-01-28T14:22:08.341Z,1.00
2023-01-28T14:24:37.544Z,0.68
2023-01-28T14:27:12.785Z,0.70
2023-01-28T14:29:45.636Z,0.70
2023-01-28T14:32:14.523Z,0.65
2023-01-28T14:34:40.831Z,0.77
2023-01-28T14:37:19.346Z,0.85
2023-01-28T14:39:45.434Z,0.60
2023-01-28T14:42:25.832Z,0.80
2023-01-28T14:45:01.583Z,0.65
2023-01-28T14:47:33.628Z,0.63
2023-01-28T14:50:17.024Z,0.93
2023-01-28T14:52:55.260Z,0.63
2023-01-28T14:55:44.799Z,0.60
2023-01-28T14:58:18.808Z,0.63
2023-01-28T15:00:53.620Z,0.75
2023-01-28T15:03:27.152Z,0.90
2023-01-28T15:06:31.841Z,0.50
2023-01-28T15:09:07.652Z,0.52
2023-01-28T15:11:36.596Z,0.60
2023-01-28T15:14:02.728Z,0.70
2023-01-28T15:16:30.878Z,0.90
2023-01-28T15:19:01.503Z,0.80
2023-01-28T15:21:28.504Z,0.80
2023-01-28T15:23:56.473Z,1.33
2023-01-28T15:26:26.771Z,1.10
2023-01-28T15:28:53.924Z,2.03
2023-01-28T15:31:28.188Z,0.90
2023-01-28T15:33:57.046Z,1.33
2023-01-28T15:36:41.439Z,1.02
2023-01-28T15:39:21.113Z,1.00
2023-01-28T15:42:07.274Z,0.95
2023-01-28T15:44:35.296Z,0.85
2023-01-28T15:47:02.264Z,0.82
2023-01-28T15:49:31.224Z,1.80
2023-01-28T15:51:57.189Z,0.90
2023-01-28T15:54:24.845Z,2.25
2023-01-28T15:56:51.289Z,0.95
2023-01-28T15:59:20.318Z,1.13
2023-01-28T16:01:46.428Z,1.10
2023-01-28T16:04:22.933Z,1.17
2023-01-28T16:06:54.191Z,1.80
2023-01-28T16:09:20.852Z,1.63
2023-01-28T16:11:46.921Z,1.67
2023-01-28T16:14:30.993Z,1.52
2023-01-28T16:16:57.315Z,1.17
2023-01-28T16:19:37.363Z,1.55
2023-01-28T16:22:07.459Z,1.08
2023-01-28T16:24:54.667Z,1.25
2023-01-28T16:27:20.595Z,1.05
2023-01-28T16:29:46.647Z,1.20
2023-01-28T16:32:34.404Z,1.70
2023-01-28T16:35:00.740Z,1.40
2023-01-28T16:39:59.114Z,1.52
2023-01-28T16:42:27.544Z,1.27
2023-01-28T16:44:54.204Z,1.30
2023-01-28T16:47:20.092Z,1.05
2023-01-28T16:49:46.964Z,1.53
2023-01-28T16:52:13.165Z,2.47
2023-01-28T16:54:41.873Z,1.83
2023-01-28T16:57:09.428Z,1.40
2023-01-28T16:59:35.191Z,1.50
2023-01-28T17:02:01.100Z,1.23
2023-01-28T17:04:27.479Z,1.20
2023-01-28T17:06:56.501Z,1.10
2023-01-28T17:09:23.659Z,1.50
2023-01-28T17:11:49.509Z,1.93
2023-01-28T17:14:15.468Z,1.30
2023-01-28T17:16:41.517Z,1.80
2023-01-28T17:19:07.845Z,1.60
2023-01-28T17:21:33.693Z,1.50
2023-01-28T17:24:00.299Z,1.80
2023-01-28T17:26:28.526Z,1.93
2023-01-28T17:28:54.750Z,1.20
2023-01-28T17:31:21.042Z,1.73
2023-01-28T17:33:47.010Z,1.53
2023-01-28T17:36:13.297Z,2.83
2023-01-28T17:38:43.321Z,1.60
2023-01-28T17:41:10.806Z,1.77
2023-01-28T17:43:36.863Z,1.50
2023-01-28T17:46:09.615Z,1.60
2023-01-28T17:48:35.736Z,1.60
2023-01-28T17:51:01.780Z,1.80
2023-01-28T17:53:27.816Z,1.13
2023-01-28T17:55:53.769Z,1.10
2023-01-28T17:58:20.340Z,0.90
2023-01-28T18:00:46.300Z,1.17
2023-01-28T18:03:13.037Z,1.10
2023-01-28T18:06:08.093Z,1.30
2023-01-28T18:08:34.984Z,1.50
2023-01-28T18:13:44.684Z,1.17
2023-01-28T18:16:14.324Z,1.10
2023-01-28T18:18:40.371Z,1.87
2023-01-28T18:21:07.336Z,1.90
2023-01-28T18:23:33.828Z,1.50
2023-01-28T18:26:02.148Z,1.77
2023-01-28T18:28:28.563Z,1.50
2023-01-28T18:30:54.746Z,2.07
2023-01-28T18:33:22.257Z,1.50
2023-01-28T18:35:48.800Z,1.07
2023-01-28T18:38:15.599Z,1.60
2023-01-28T18:40:45.379Z,1.40
2023-01-28T18:43:11.776Z,1.70
2023-01-28T18:45:38.589Z,1.57
2023-01-28T18:48:04.403Z,1.33
2023-01-28T18:50:30.937Z,1.97
2023-01-28T18:52:56.878Z,1.70
2023-01-28T18:55:23.026Z,1.50
2023-01-28T18:57:48.913Z,1.83
2023-01-28T19:00:16.192Z,1.87
2023-01-28T19:02:41.952Z,2.20
2023-01-28T19:05:07.962Z,2.37
2023-01-28T19:07:33.877Z,1.90
2023-01-28T19:09:59.980Z,1.97
2023-01-28T19:12:27.173Z,2.10
2023-01-28T19:14:53.413Z,2.20
2023-01-28T19:17:19.810Z,2.40
2023-01-28T19:19:45.639Z,2.40
2023-01-28T19:22:11.927Z,1.77
2023-01-28T19:24:37.870Z,1.87
2023-01-28T19:27:03.701Z,2.27
2023-01-28T19:29:30.037Z,1.87
2023-01-28T19:31:56.979Z,1.93
2023-01-28T19:34:22.995Z,1.90
2023-01-28T19:36:57.721Z,1.80
2023-01-28T19:39:23.617Z,1.90
2023-01-28T19:41:49.470Z,1.47
2023-01-28T19:44:16.221Z,1.50
2023-01-28T19:46:42.225Z,1.60
2023-01-28T19:49:10.209Z,1.57
2023-01-28T19:51:36.287Z,2.00
2023-01-28T19:54:02.391Z,1.70
2023-01-28T19:56:29.391Z,1.40
2023-01-28T19:58:55.308Z,2.20
2023-01-28T20:01:26.635Z,2.03
2023-01-28T20:03:57.927Z,2.07
2023-01-28T20:06:28.423Z,1.50
2023-01-28T20:08:55.664Z,2.17
2023-01-28T20:11:21.926Z,1.63
2023-01-28T20:13:48.604Z,2.53
2023-01-28T20:16:17.142Z,2.40
2023-01-28T20:18:43.801Z,2.27
2023-01-28T20:21:09.571Z,2.70
2023-01-28T20:23:35.394Z,2.30
2023-01-28T20:26:01.246Z,2.23
2023-01-28T20:28:27.587Z,2.43
2023-01-28T20:30:54.240Z,2.20
2023-01-28T20:33:20.462Z,2.27
2023-01-28T20:35:46.390Z,2.23
2023-01-28T20:38:12.441Z,2.10
2023-01-28T20:40:45.459Z,2.17
2023-01-28T20:43:11.341Z,2.97
2023-01-28T20:45:37.212Z,3.67
2023-01-28T20:48:03.020Z,1.60
2023-01-28T20:50:28.964Z,2.10
2023-01-28T20:52:55.059Z,1.87
2023-01-28T20:55:21.045Z,2.17
2023-01-28T20:57:47.080Z,2.27
2023-01-28T21:00:13.232Z,2.40
2023-01-28T21:02:39.446Z,2.27
2023-01-28T21:05:40.320Z,2.63
2023-01-28T21:10:31.821Z,2.60
2023-01-28T21:12:57.602Z,2.67
2023-01-28T21:15:23.676Z,2.50
2023-01-28T21:17:49.670Z,2.77
2023-01-28T21:20:15.751Z,2.67
2023-01-28T21:22:42.211Z,3.13
2023-01-28T21:25:08.193Z,2.93
2023-01-28T21:27:39.339Z,2.50
2023-01-28T21:30:05.564Z,2.47
2023-01-28T21:32:31.351Z,2.60
2023-01-28T21:34:57.293Z,2.67
2023-01-28T21:37:57.492Z,2.70
2023-01-28T21:40:23.311Z,2.85
2023-01-28T21:42:52.220Z,3.23
2023-01-28T21:45:18.087Z,2.27
2023-01-28T21:47:43.894Z,2.50
2023-01-28T21:50:09.744Z,2.90
2023-01-28T21:52:35.782Z,2.73
2023-01-28T21:55:02.015Z,3.27
2023-01-28T21:57:27.813Z,3.10
2023-01-28T21:59:53.799Z,3.13
2023-01-28T22:02:22.830Z,3.10
2023-01-28T22:04:49.808Z,2.97
2023-01-28T22:07:20.594Z,2.77
2023-01-28T22:09:46.773Z,2.40
2023-01-28T22:12:14.579Z,3.10
2023-01-28T22:14:41.131Z,2.93
2023-01-28T22:17:08.479Z,2.53
2023-01-28T22:19:34.413Z,3.10
2023-01-28T22:22:00.324Z,2.83
2023-01-28T22:24:26.369Z,2.97
2023-01-28T22:26:53.248Z,2.83
2023-01-28T22:29:19.974Z,2.90
2023-01-28T22:31:46.510Z,3.67
2023-01-28T22:34:12.402Z,2.90
2023-01-28T22:36:38.259Z,2.93
2023-01-28T22:39:05.149Z,3.27
2023-01-28T22:41:30.972Z,3.20
2023-01-28T22:43:57.060Z,3.63
2023-01-28T22:46:23.713Z,3.63
2023-01-28T22:48:50.014Z,4.40
2023-01-28T22:51:19.736Z,3.40
2023-01-28T22:53:46.471Z,3.40
2023-01-28T22:56:12.772Z,3.60
2023-01-28T22:58:38.807Z,3.83
2023-01-28T23:01:04.983Z,4.03
2023-01-28T23:03:30.731Z,4.47
2023-01-28T23:05:57.467Z,3.60
2023-01-28T23:08:23.209Z,3.83
2023-01-28T23:10:52.230Z,4.07
2023-01-28T23:13:19.272Z,4.03
2023-01-28T23:16:04.010Z,4.40
2023-01-28T23:18:48.830Z,4.60
2023-01-28T23:21:35.125Z,4.63
2023-01-28T23:24:27.559Z,5.23
2023-01-28T23:26:56.408Z,4.53
2023-01-28T23:29:25.981Z,3.90
2023-01-28T23:31:53.716Z,4.70
2023-01-28T23:34:19.889Z,4.87
2023-01-28T23:37:05.631Z,5.80
2023-01-28T23:39:31.496Z,4.80
2023-01-28T23:41:57.417Z,5.53
2023-01-28T23:44:23.997Z,5.80
2023-01-28T23:46:50.725Z,4.50
2023-01-28T23:49:16.729Z,5.00
2023-01-28T23:51:42.468Z,5.70
2023-01-28T23:54:08.392Z,5.27
2023-01-28T23:56:34.305Z,5.83
2023-01-28T23:59:00.179Z,5.30
